sensor_id;sensor_type;location;lat;lon;timestamp;pressure;altitude;pressure_sealevel;temperature;humidity
38620;BME280;24376;51.986;4.662;2022-07-24T00:01:25;98528.25;;;17.24;100.00
38620;BME280;24376;51.986;4.662;2022-07-24T00:03:50;98442.88;;;17.21;100.00
38620;BME280;24376;51.986;4.662;2022-07-24T00:06:15;98364.53;;;17.18;100.00
38620;BME280;24376;51.986;4.662;2022-07-24T00:08:41;98295.63;;;17.21;100.00
38620;BME280;24376;51.986;4.662;2022-07-24T00:11:06;98287.91;;;17.17;100.00
38620;BME280;24376;51.986;4.662;2022-07-24T00:13:31;98244.84;;;17.13;100.00
38620;BME280;24376;51.986;4.662;2022-07-24T00:15:56;98220.28;;;17.11;100.00
38620;BME280;24376;51.986;4.662;2022-07-24T00:18:22;98173.56;;;17.10;100.00
38620;BME280;24376;51.986;4.662;2022-07-24T00:20:47;98129.53;;;17.11;100.00
38620;BME280;24376;51.986;4.662;2022-07-24T00:23:12;98136.63;;;17.09;100.00
38620;BME280;24376;51.986;4.662;2022-07-24T00:25:37;98106.03;;;17.03;100.00
38620;BME280;24376;51.986;4.662;2022-07-24T00:28:02;98084.88;;;17.03;100.00
38620;BME280;24376;51.986;4.662;2022-07-24T00:30:27;98052.47;;;16.99;100.00
38620;BME280;24376;51.986;4.662;2022-07-24T00:32:53;98083.31;;;16.99;100.00
38620;BME280;24376;51.986;4.662;2022-07-24T00:35:18;98034.00;;;16.98;100.00
38620;BME280;24376;51.986;4.662;2022-07-24T00:37:43;98032.94;;;17.02;100.00
38620;BME280;24376;51.986;4.662;2022-07-24T00:40:11;98021.72;;;16.97;100.00
38620;BME280;24376;51.986;4.662;2022-07-24T00:42:36;98006.66;;;16.99;100.00
38620;BME280;24376;51.986;4.662;2022-07-24T00:45:01;97987.34;;;16.97;100.00
38620;BME280;24376;51.986;4.662;2022-07-24T00:47:26;98034.22;;;16.93;100.00
38620;BME280;24376;51.986;4.662;2022-07-24T00:49:51;98022.84;;;16.91;100.00
38620;BME280;24376;51.986;4.662;2022-07-24T00:52:17;98023.84;;;16.89;100.00
38620;BME280;24376;51.986;4.662;2022-07-24T00:54:42;98009.06;;;16.85;100.00
38620;BME280;24376;51.986;4.662;2022-07-24T00:57:07;98031.06;;;16.85;100.00
38620;BME280;24376;51.986;4.662;2022-07-24T00:59:32;98092.66;;;16.87;100.00
38620;BME280;24376;51.986;4.662;2022-07-24T01:01:57;98001.97;;;16.85;100.00
38620;BME280;24376;51.986;4.662;2022-07-24T01:04:23;97986.13;;;16.85;100.00
38620;BME280;24376;51.986;4.662;2022-07-24T01:06:48;97994.06;;;16.85;100.00
38620;BME280;24376;51.986;4.662;2022-07-24T01:09:14;97939.78;;;16.97;100.00
38620;BME280;24376;51.986;4.662;2022-07-24T01:11:39;97891.41;;;16.95;100.00
38620;BME280;24376;51.986;4.662;2022-07-24T01:14:05;97944.41;;;16.92;100.00
38620;BME280;24376;51.986;4.662;2022-07-24T01:16:31;97954.94;;;16.93;100.00
38620;BME280;24376;51.986;4.662;2022-07-24T01:18:57;97957.78;;;16.89;100.00
38620;BME280;24376;51.986;4.662;2022-07-24T01:21:22;97965.84;;;16.86;100.00
38620;BME280;24376;51.986;4.662;2022-07-24T01:23:47;97934.19;;;16.84;100.00
38620;BME280;24376;51.986;4.662;2022-07-24T01:26:12;97929.84;;;16.83;100.00
38620;BME280;24376;51.986;4.662;2022-07-24T01:28:37;97895.41;;;16.85;100.00
38620;BME280;24376;51.986;4.662;2022-07-24T01:31:03;97911.44;;;16.82;100.00
38620;BME280;24376;51.986;4.662;2022-07-24T01:33:28;97887.63;;;16.82;100.00
38620;BME280;24376;51.986;4.662;2022-07-24T01:35:53;97892.84;;;16.83;100.00
38620;BME280;24376;51.986;4.662;2022-07-24T01:38:18;97935.72;;;16.90;100.00
38620;BME280;24376;51.986;4.662;2022-07-24T01:40:44;97939.06;;;16.93;100.00
38620;BME280;24376;51.986;4.662;2022-07-24T01:43:09;97898.28;;;16.99;100.00
38620;BME280;24376;51.986;4.662;2022-07-24T01:45:34;97893.22;;;16.94;100.00
38620;BME280;24376;51.986;4.662;2022-07-24T01:48:00;97870.28;;;16.95;100.00
38620;BME280;24376;51.986;4.662;2022-07-24T01:50:25;97840.81;;;17.02;100.00
38620;BME280;24376;51.986;4.662;2022-07-24T01:52:51;97887.13;;;17.11;100.00
38620;BME280;24376;51.986;4.662;2022-07-24T01:55:18;97924.91;;;17.13;100.00
38620;BME280;24376;51.986;4.662;2022-07-24T01:57:43;97906.41;;;17.13;100.00
38620;BME280;24376;51.986;4.662;2022-07-24T02:00:08;97938.72;;;17.20;100.00
38620;BME280;24376;51.986;4.662;2022-07-24T02:02:38;97960.59;;;17.23;100.00
38620;BME280;24376;51.986;4.662;2022-07-24T02:05:03;97971.44;;;17.36;100.00
38620;BME280;24376;51.986;4.662;2022-07-24T02:07:28;97997.72;;;17.39;100.00
38620;BME280;24376;51.986;4.662;2022-07-24T02:09:54;98059.50;;;17.38;100.00
38620;BME280;24376;51.986;4.662;2022-07-24T02:12:19;98137.88;;;17.41;100.00
38620;BME280;24376;51.986;4.662;2022-07-24T02:14:44;98298.44;;;17.39;100.00
38620;BME280;24376;51.986;4.662;2022-07-24T02:17:09;98280.56;;;17.44;100.00
38620;BME280;24376;51.986;4.662;2022-07-24T02:19:35;98391.84;;;17.41;100.00
38620;BME280;24376;51.986;4.662;2022-07-24T02:22:00;98476.75;;;17.33;100.00
38620;BME280;24376;51.986;4.662;2022-07-24T02:24:25;98561.47;;;17.32;100.00
38620;BME280;24376;51.986;4.662;2022-07-24T02:26:50;98625.03;;;17.30;100.00
38620;BME280;24376;51.986;4.662;2022-07-24T02:29:16;98729.25;;;17.24;100.00
38620;BME280;24376;51.986;4.662;2022-07-24T02:31:41;98751.34;;;17.23;100.00
38620;BME280;24376;51.986;4.662;2022-07-24T02:34:06;98785.97;;;17.16;100.00
38620;BME280;24376;51.986;4.662;2022-07-24T02:36:32;98793.03;;;17.15;100.00
38620;BME280;24376;51.986;4.662;2022-07-24T02:38:57;98810.69;;;17.15;100.00
38620;BME280;24376;51.986;4.662;2022-07-24T02:41:22;98797.56;;;17.12;100.00
38620;BME280;24376;51.986;4.662;2022-07-24T02:43:47;98877.78;;;17.12;100.00
38620;BME280;24376;51.986;4.662;2022-07-24T02:46:12;98815.38;;;17.07;100.00
38620;BME280;24376;51.986;4.662;2022-07-24T02:48:38;98813.66;;;17.04;100.00
38620;BME280;24376;51.986;4.662;2022-07-24T02:51:03;98769.59;;;17.05;100.00
38620;BME280;24376;51.986;4.662;2022-07-24T02:53:28;98741.41;;;17.03;100.00
38620;BME280;24376;51.986;4.662;2022-07-24T02:55:54;98738.97;;;16.99;100.00
38620;BME280;24376;51.986;4.662;2022-07-24T02:58:19;98719.56;;;16.98;100.00
38620;BME280;24376;51.986;4.662;2022-07-24T03:00:44;98695.75;;;16.98;100.00
38620;BME280;24376;51.986;4.662;2022-07-24T03:03:10;98685.16;;;17.00;100.00
38620;BME280;24376;51.986;4.662;2022-07-24T03:05:35;98658.94;;;16.94;100.00
38620;BME280;24376;51.986;4.662;2022-07-24T03:08:00;98632.59;;;16.91;100.00
38620;BME280;24376;51.986;4.662;2022-07-24T03:10:26;98621.22;;;16.89;100.00
38620;BME280;24376;51.986;4.662;2022-07-24T03:12:51;98569.22;;;16.89;100.00
38620;BME280;24376;51.986;4.662;2022-07-24T03:15:16;98541.09;;;16.87;100.00
38620;BME280;24376;51.986;4.662;2022-07-24T03:17:52;98531.59;;;16.81;100.00
38620;BME280;24376;51.986;4.662;2022-07-24T03:20:18;98522.06;;;16.77;100.00
38620;BME280;24376;51.986;4.662;2022-07-24T03:22:44;98517.00;;;16.71;100.00
38620;BME280;24376;51.986;4.662;2022-07-24T03:25:09;98459.72;;;16.71;100.00
38620;BME280;24376;51.986;4.662;2022-07-24T03:27:34;98501.34;;;16.65;100.00
38620;BME280;24376;51.986;4.662;2022-07-24T03:30:00;98421.09;;;16.67;100.00
38620;BME280;24376;51.986;4.662;2022-07-24T03:32:25;98400.81;;;16.68;100.00
38620;BME280;24376;51.986;4.662;2022-07-24T03:34:50;98347.03;;;16.69;100.00
38620;BME280;24376;51.986;4.662;2022-07-24T03:37:15;98333.03;;;16.67;100.00
38620;BME280;24376;51.986;4.662;2022-07-24T03:39:40;98340.75;;;16.73;100.00
38620;BME280;24376;51.986;4.662;2022-07-24T03:42:07;98326.44;;;16.79;100.00
38620;BME280;24376;51.986;4.662;2022-07-24T03:44:32;98350.22;;;16.79;100.00
38620;BME280;24376;51.986;4.662;2022-07-24T03:46:57;98348.28;;;16.84;100.00
38620;BME280;24376;51.986;4.662;2022-07-24T03:49:22;98380.78;;;16.86;100.00
38620;BME280;24376;51.986;4.662;2022-07-24T03:51:47;98456.50;;;16.87;100.00
38620;BME280;24376;51.986;4.662;2022-07-24T03:54:13;98485.72;;;16.84;100.00
38620;BME280;24376;51.986;4.662;2022-07-24T03:56:38;98531.56;;;16.83;100.00
38620;BME280;24376;51.986;4.662;2022-07-24T03:59:03;98518.97;;;16.89;100.00
38620;BME280;24376;51.986;4.662;2022-07-24T04:01:28;98551.66;;;16.87;100.00
38620;BME280;24376;51.986;4.662;2022-07-24T04:03:53;98609.00;;;16.85;100.00
38620;BME280;24376;51.986;4.662;2022-07-24T04:06:18;98657.31;;;16.90;100.00
38620;BME280;24376;51.986;4.662;2022-07-24T04:08:44;98663.00;;;16.78;100.00
38620;BME280;24376;51.986;4.662;2022-07-24T04:11:10;98718.59;;;16.74;100.00
38620;BME280;24376;51.986;4.662;2022-07-24T04:13:35;98772.53;;;16.67;100.00
38620;BME280;24376;51.986;4.662;2022-07-24T04:16:00;98829.75;;;16.68;100.00
38620;BME280;24376;51.986;4.662;2022-07-24T04:18:25;98808.81;;;16.62;100.00
38620;BME280;24376;51.986;4.662;2022-07-24T04:20:51;98824.66;;;16.62;100.00
38620;BME280;24376;51.986;4.662;2022-07-24T04:23:16;98854.56;;;16.64;100.00
38620;BME280;24376;51.986;4.662;2022-07-24T04:25:42;98843.25;;;16.59;100.00
38620;BME280;24376;51.986;4.662;2022-07-24T04:28:07;98865.28;;;16.58;100.00
38620;BME280;24376;51.986;4.662;2022-07-24T04:30:32;98894.47;;;16.55;100.00
38620;BME280;24376;51.986;4.662;2022-07-24T04:32:57;98862.63;;;16.60;100.00
38620;BME280;24376;51.986;4.662;2022-07-24T04:35:23;98836.94;;;16.65;100.00
38620;BME280;24376;51.986;4.662;2022-07-24T04:37:48;98811.38;;;16.64;100.00
38620;BME280;24376;51.986;4.662;2022-07-24T04:40:14;98789.38;;;16.63;100.00
38620;BME280;24376;51.986;4.662;2022-07-24T04:42:39;98760.25;;;16.66;100.00
38620;BME280;24376;51.986;4.662;2022-07-24T04:45:05;98748.75;;;16.67;100.00
38620;BME280;24376;51.986;4.662;2022-07-24T04:47:31;98739.91;;;16.68;100.00
38620;BME280;24376;51.986;4.662;2022-07-24T04:49:56;98722.09;;;16.75;100.00
38620;BME280;24376;51.986;4.662;2022-07-24T04:52:21;98677.09;;;16.78;100.00
38620;BME280;24376;51.986;4.662;2022-07-24T04:54:46;98634.50;;;16.87;100.00
38620;BME280;24376;51.986;4.662;2022-07-24T04:57:11;98586.69;;;16.93;100.00
38620;BME280;24376;51.986;4.662;2022-07-24T04:59:36;98588.34;;;16.96;100.00
38620;BME280;24376;51.986;4.662;2022-07-24T05:02:02;98551.19;;;17.00;100.00
38620;BME280;24376;51.986;4.662;2022-07-24T05:04:27;98493.66;;;17.07;100.00
38620;BME280;24376;51.986;4.662;2022-07-24T05:06:53;98483.59;;;17.17;100.00
38620;BME280;24376;51.986;4.662;2022-07-24T05:09:18;98422.53;;;17.23;100.00
38620;BME280;24376;51.986;4.662;2022-07-24T05:11:43;98414.53;;;17.24;100.00
38620;BME280;24376;51.986;4.662;2022-07-24T05:14:08;98365.75;;;17.32;100.00
38620;BME280;24376;51.986;4.662;2022-07-24T05:16:33;98371.72;;;17.37;100.00
38620;BME280;24376;51.986;4.662;2022-07-24T05:18:58;98364.53;;;17.40;100.00
38620;BME280;24376;51.986;4.662;2022-07-24T05:21:24;98320.94;;;17.49;100.00
38620;BME280;24376;51.986;4.662;2022-07-24T05:23:49;98369.03;;;17.59;100.00
38620;BME280;24376;51.986;4.662;2022-07-24T05:26:14;98344.78;;;17.69;100.00
38620;BME280;24376;51.986;4.662;2022-07-24T05:28:39;98353.41;;;17.74;100.00
38620;BME280;24376;51.986;4.662;2022-07-24T05:31:04;98397.09;;;17.85;100.00
38620;BME280;24376;51.986;4.662;2022-07-24T05:33:30;98454.16;;;17.92;100.00
38620;BME280;24376;51.986;4.662;2022-07-24T05:35:56;98474.84;;;18.04;100.00
38620;BME280;24376;51.986;4.662;2022-07-24T05:38:21;98549.50;;;18.12;100.00
38620;BME280;24376;51.986;4.662;2022-07-24T05:40:46;98570.44;;;18.18;100.00
38620;BME280;24376;51.986;4.662;2022-07-24T05:43:11;98610.75;;;18.26;100.00
38620;BME280;24376;51.986;4.662;2022-07-24T05:45:36;98661.50;;;18.38;100.00
38620;BME280;24376;51.986;4.662;2022-07-24T05:48:02;98703.47;;;18.48;100.00
38620;BME280;24376;51.986;4.662;2022-07-24T05:50:27;98737.88;;;18.50;100.00
38620;BME280;24376;51.986;4.662;2022-07-24T05:52:52;98781.38;;;18.68;100.00
38620;BME280;24376;51.986;4.662;2022-07-24T05:55:17;98859.75;;;18.75;100.00
38620;BME280;24376;51.986;4.662;2022-07-24T05:57:43;98860.91;;;18.90;100.00
38620;BME280;24376;51.986;4.662;2022-07-24T06:00:09;98907.81;;;19.11;100.00
38620;BME280;24376;51.986;4.662;2022-07-24T06:02:34;99009.63;;;19.32;100.00
38620;BME280;24376;51.986;4.662;2022-07-24T06:04:59;99107.91;;;19.52;100.00
38620;BME280;24376;51.986;4.662;2022-07-24T06:07:24;99146.66;;;19.81;100.00
38620;BME280;24376;51.986;4.662;2022-07-24T06:09:50;99222.50;;;20.12;100.00
38620;BME280;24376;51.986;4.662;2022-07-24T06:12:17;99387.16;;;20.15;100.00
38620;BME280;24376;51.986;4.662;2022-07-24T06:14:42;99534.28;;;20.14;100.00
38620;BME280;24376;51.986;4.662;2022-07-24T06:17:22;99626.94;;;20.25;100.00
38620;BME280;24376;51.986;4.662;2022-07-24T06:19:47;99738.63;;;20.23;100.00
38620;BME280;24376;51.986;4.662;2022-07-24T06:22:15;99860.88;;;20.25;100.00
38620;BME280;24376;51.986;4.662;2022-07-24T06:24:41;100121.44;;;20.22;100.00
38620;BME280;24376;51.986;4.662;2022-07-24T06:27:06;100259.63;;;20.25;100.00
38620;BME280;24376;51.986;4.662;2022-07-24T06:29:31;100483.63;;;20.34;100.00
38620;BME280;24376;51.986;4.662;2022-07-24T06:31:57;100884.16;;;20.44;100.00
38620;BME280;24376;51.986;4.662;2022-07-24T06:34:22;100940.03;;;20.48;100.00
38620;BME280;24376;51.986;4.662;2022-07-24T06:36:49;100967.47;;;20.53;100.00
38620;BME280;24376;51.986;4.662;2022-07-24T06:39:15;100967.25;;;20.68;100.00
38620;BME280;24376;51.986;4.662;2022-07-24T06:41:40;100958.78;;;21.02;100.00
38620;BME280;24376;51.986;4.662;2022-07-24T06:44:05;100959.50;;;21.13;100.00
38620;BME280;24376;51.986;4.662;2022-07-24T06:46:31;100944.59;;;21.57;100.00
38620;BME280;24376;51.986;4.662;2022-07-24T06:48:56;100912.97;;;21.85;100.00
38620;BME280;24376;51.986;4.662;2022-07-24T06:51:21;100918.34;;;21.83;100.00
38620;BME280;24376;51.986;4.662;2022-07-24T06:53:46;100909.63;;;21.75;100.00
38620;BME280;24376;51.986;4.662;2022-07-24T06:56:12;100921.66;;;21.48;100.00
38620;BME280;24376;51.986;4.662;2022-07-24T06:58:37;100926.44;;;21.26;100.00
38620;BME280;24376;51.986;4.662;2022-07-24T07:01:02;100943.56;;;21.10;100.00
38620;BME280;24376;51.986;4.662;2022-07-24T07:03:27;100948.97;;;21.04;100.00
38620;BME280;24376;51.986;4.662;2022-07-24T07:05:52;100957.09;;;20.96;100.00
38620;BME280;24376;51.986;4.662;2022-07-24T07:08:18;100980.25;;;20.89;100.00
38620;BME280;24376;51.986;4.662;2022-07-24T07:10:43;100987.22;;;20.99;100.00
38620;BME280;24376;51.986;4.662;2022-07-24T07:13:08;100988.09;;;21.00;100.00
38620;BME280;24376;51.986;4.662;2022-07-24T07:15:33;100993.47;;;20.95;100.00
38620;BME280;24376;51.986;4.662;2022-07-24T07:17:58;100986.25;;;21.04;100.00
38620;BME280;24376;51.986;4.662;2022-07-24T07:20:24;100979.97;;;21.08;100.00
38620;BME280;24376;51.986;4.662;2022-07-24T07:22:49;100999.47;;;21.10;100.00
38620;BME280;24376;51.986;4.662;2022-07-24T07:25:14;100993.09;;;21.23;100.00
38620;BME280;24376;51.986;4.662;2022-07-24T07:27:39;100989.28;;;21.39;100.00
38620;BME280;24376;51.986;4.662;2022-07-24T07:30:05;100991.06;;;21.39;100.00
38620;BME280;24376;51.986;4.662;2022-07-24T07:32:30;100996.56;;;21.26;100.00
38620;BME280;24376;51.986;4.662;2022-07-24T07:34:55;100997.38;;;21.33;100.00
38620;BME280;24376;51.986;4.662;2022-07-24T07:37:21;101002.53;;;21.45;100.00
38620;BME280;24376;51.986;4.662;2022-07-24T07:39:46;100988.03;;;21.63;100.00
38620;BME280;24376;51.986;4.662;2022-07-24T07:42:11;100993.00;;;21.83;100.00
38620;BME280;24376;51.986;4.662;2022-07-24T07:44:36;100995.69;;;21.82;100.00
38620;BME280;24376;51.986;4.662;2022-07-24T07:47:01;100995.69;;;21.82;100.00
38620;BME280;24376;51.986;4.662;2022-07-24T07:49:27;100994.41;;;22.04;100.00
38620;BME280;24376;51.986;4.662;2022-07-24T07:51:52;100991.69;;;22.05;100.00
38620;BME280;24376;51.986;4.662;2022-07-24T07:54:18;100991.53;;;22.15;100.00
38620;BME280;24376;51.986;4.662;2022-07-24T07:56:43;100982.22;;;22.37;100.00
38620;BME280;24376;51.986;4.662;2022-07-24T08:01:34;100975.00;;;22.42;100.00
38620;BME280;24376;51.986;4.662;2022-07-24T08:03:59;100982.38;;;22.29;100.00
38620;BME280;24376;51.986;4.662;2022-07-24T08:06:24;100993.44;;;22.10;100.00
38620;BME280;24376;51.986;4.662;2022-07-24T08:08:49;100994.38;;;22.05;100.00
38620;BME280;24376;51.986;4.662;2022-07-24T08:11:15;100980.69;;;22.24;100.00
38620;BME280;24376;51.986;4.662;2022-07-24T08:13:40;100990.09;;;22.43;100.00
38620;BME280;24376;51.986;4.662;2022-07-24T08:16:05;101004.22;;;22.50;100.00
38620;BME280;24376;51.986;4.662;2022-07-24T08:18:30;101022.66;;;22.61;100.00
38620;BME280;24376;51.986;4.662;2022-07-24T08:20:56;101007.00;;;22.87;100.00
38620;BME280;24376;51.986;4.662;2022-07-24T08:23:21;101015.47;;;23.06;100.00
38620;BME280;24376;51.986;4.662;2022-07-24T08:25:46;101037.53;;;23.16;100.00
38620;BME280;24376;51.986;4.662;2022-07-24T08:28:11;101057.97;;;23.17;100.00
38620;BME280;24376;51.986;4.662;2022-07-24T08:30:36;101049.63;;;23.32;100.00
38620;BME280;24376;51.986;4.662;2022-07-24T08:33:02;101054.28;;;23.59;100.00
38620;BME280;24376;51.986;4.662;2022-07-24T08:35:27;102076.47;;;23.58;100.00
38620;BME280;24376;51.986;4.662;2022-07-24T08:37:52;102057.72;;;23.68;100.00
38620;BME280;24376;51.986;4.662;2022-07-24T08:40:17;102044.16;;;23.87;100.00
38620;BME280;24376;51.986;4.662;2022-07-24T08:42:42;102022.50;;;24.10;100.00
38620;BME280;24376;51.986;4.662;2022-07-24T08:45:08;102018.91;;;24.14;100.00
38620;BME280;24376;51.986;4.662;2022-07-24T08:47:33;102035.88;;;24.10;100.00
38620;BME280;24376;51.986;4.662;2022-07-24T08:49:59;102036.88;;;24.03;100.00
38620;BME280;24376;51.986;4.662;2022-07-24T08:52:24;102040.28;;;24.16;100.00
38620;BME280;24376;51.986;4.662;2022-07-24T08:54:50;102017.28;;;24.01;100.00
38620;BME280;24376;51.986;4.662;2022-07-24T08:57:16;102009.38;;;23.89;100.00
38620;BME280;24376;51.986;4.662;2022-07-24T08:59:41;101986.22;;;23.86;100.00
38620;BME280;24376;51.986;4.662;2022-07-24T09:02:06;101978.09;;;23.94;100.00
38620;BME280;24376;51.986;4.662;2022-07-24T09:06:57;101970.69;;;24.19;100.00
38620;BME280;24376;51.986;4.662;2022-07-24T09:09:22;101958.72;;;24.49;100.00
38620;BME280;24376;51.986;4.662;2022-07-24T09:11:47;101958.75;;;24.46;100.00
38620;BME280;24376;51.986;4.662;2022-07-24T09:14:12;101952.69;;;24.30;100.00
38620;BME280;24376;51.986;4.662;2022-07-24T09:17:03;101950.19;;;24.16;100.00
38620;BME280;24376;51.986;4.662;2022-07-24T09:19:28;101928.09;;;24.01;100.00
38620;BME280;24376;51.986;4.662;2022-07-24T09:21:54;101942.00;;;24.29;100.00
38620;BME280;24376;51.986;4.662;2022-07-24T09:24:20;101927.53;;;24.45;100.00
38620;BME280;24376;51.986;4.662;2022-07-24T09:26:46;101929.06;;;24.63;100.00
38620;BME280;24376;51.986;4.662;2022-07-24T09:29:12;101935.06;;;24.79;100.00
38620;BME280;24376;51.986;4.662;2022-07-24T09:34:18;101915.09;;;24.98;100.00
38620;BME280;24376;51.986;4.662;2022-07-24T09:37:02;101901.53;;;25.10;100.00
38620;BME280;24376;51.986;4.662;2022-07-24T09:39:29;101900.47;;;25.20;100.00
38620;BME280;24376;51.986;4.662;2022-07-24T09:41:55;101913.41;;;25.46;100.00
38620;BME280;24376;51.986;4.662;2022-07-24T09:44:20;101897.16;;;25.03;100.00
38620;BME280;24376;51.986;4.662;2022-07-24T09:46:56;101904.16;;;25.13;100.00
38620;BME280;24376;51.986;4.662;2022-07-24T09:49:22;101905.63;;;25.31;100.00
38620;BME280;24376;51.986;4.662;2022-07-24T09:54:50;101894.75;;;25.39;100.00
38620;BME280;24376;51.986;4.662;2022-07-24T09:57:22;101886.91;;;25.30;100.00
38620;BME280;24376;51.986;4.662;2022-07-24T09:59:58;101895.00;;;25.73;100.00
38620;BME280;24376;51.986;4.662;2022-07-24T10:02:24;101893.84;;;25.88;100.00
38620;BME280;24376;51.986;4.662;2022-07-24T10:04:50;101887.59;;;25.87;100.00
38620;BME280;24376;51.986;4.662;2022-07-24T10:07:17;101891.19;;;26.26;100.00
38620;BME280;24376;51.986;4.662;2022-07-24T10:09:45;101885.56;;;26.39;100.00
38620;BME280;24376;51.986;4.662;2022-07-24T10:12:14;101867.94;;;26.25;100.00
38620;BME280;24376;51.986;4.662;2022-07-24T10:14:40;101875.63;;;26.02;100.00
38620;BME280;24376;51.986;4.662;2022-07-24T10:17:07;101870.78;;;26.19;100.00
38620;BME280;24376;51.986;4.662;2022-07-24T10:19:45;101860.03;;;26.19;100.00
38620;BME280;24376;51.986;4.662;2022-07-24T10:22:12;101856.13;;;26.34;100.00
38620;BME280;24376;51.986;4.662;2022-07-24T10:27:31;101851.84;;;26.64;100.00
38620;BME280;24376;51.986;4.662;2022-07-24T10:29:58;101858.66;;;26.79;100.00
38620;BME280;24376;51.986;4.662;2022-07-24T10:32:24;101841.56;;;26.82;100.00
38620;BME280;24376;51.986;4.662;2022-07-24T10:37:28;101853.72;;;27.32;100.00
38620;BME280;24376;51.986;4.662;2022-07-24T10:42:31;101846.75;;;27.56;100.00
38620;BME280;24376;51.986;4.662;2022-07-24T10:45:15;101832.09;;;27.35;100.00
38620;BME280;24376;51.986;4.662;2022-07-24T10:47:41;101815.59;;;27.16;100.00
38620;BME280;24376;51.986;4.662;2022-07-24T10:50:07;101822.19;;;27.37;100.00
38620;BME280;24376;51.986;4.662;2022-07-24T10:52:32;101826.00;;;27.28;100.00
38620;BME280;24376;51.986;4.662;2022-07-24T10:57:45;101827.88;;;27.57;100.00
38620;BME280;24376;51.986;4.662;2022-07-24T11:00:31;101822.97;;;27.73;100.00
38620;BME280;24376;51.986;4.662;2022-07-24T11:03:00;101817.69;;;27.69;100.00
38620;BME280;24376;51.986;4.662;2022-07-24T11:05:27;101815.28;;;27.58;100.00
38620;BME280;24376;51.986;4.662;2022-07-24T11:18:38;101802.53;;;27.96;100.00
38620;BME280;24376;51.986;4.662;2022-07-24T11:21:04;101796.28;;;27.95;100.00
38620;BME280;24376;51.986;4.662;2022-07-24T11:23:29;101816.06;;;28.22;100.00
38620;BME280;24376;51.986;4.662;2022-07-24T11:28:38;101805.06;;;28.28;100.00
38620;BME280;24376;51.986;4.662;2022-07-24T11:31:03;101808.97;;;28.74;100.00
38620;BME280;24376;51.986;4.662;2022-07-24T11:33:28;101804.63;;;28.97;100.00
38620;BME280;24376;51.986;4.662;2022-07-24T11:35:54;101794.56;;;28.75;100.00
38620;BME280;24376;51.986;4.662;2022-07-24T11:38:19;101792.50;;;28.83;100.00
38620;BME280;24376;51.986;4.662;2022-07-24T11:40:52;101795.66;;;29.21;100.00
38620;BME280;24376;51.986;4.662;2022-07-24T11:43:29;101787.94;;;29.10;100.00
38620;BME280;24376;51.986;4.662;2022-07-24T11:45:54;101785.59;;;29.01;100.00
38620;BME280;24376;51.986;4.662;2022-07-24T11:48:19;101785.94;;;28.90;100.00
38620;BME280;24376;51.986;4.662;2022-07-24T11:50:45;101782.03;;;28.74;100.00
38620;BME280;24376;51.986;4.662;2022-07-24T11:53:10;101774.47;;;29.10;100.00
38620;BME280;24376;51.986;4.662;2022-07-24T11:55:35;101767.75;;;28.97;100.00
38620;BME280;24376;51.986;4.662;2022-07-24T11:58:01;101766.78;;;29.00;100.00
38620;BME280;24376;51.986;4.662;2022-07-24T12:00:27;101764.69;;;29.08;100.00
38620;BME280;24376;51.986;4.662;2022-07-24T12:02:53;101780.13;;;29.76;100.00
38620;BME280;24376;51.986;4.662;2022-07-24T12:07:50;101748.03;;;29.20;100.00
38620;BME280;24376;51.986;4.662;2022-07-24T12:10:18;101754.16;;;29.49;100.00
38620;BME280;24376;51.986;4.662;2022-07-24T12:12:43;101760.91;;;29.84;100.00
38620;BME280;24376;51.986;4.662;2022-07-24T12:15:11;101760.22;;;29.79;100.00
38620;BME280;24376;51.986;4.662;2022-07-24T12:17:52;101748.31;;;29.61;100.00
38620;BME280;24376;51.986;4.662;2022-07-24T12:20:20;101753.00;;;30.01;100.00
38620;BME280;24376;51.986;4.662;2022-07-24T12:22:46;101750.63;;;29.93;100.00
38620;BME280;24376;51.986;4.662;2022-07-24T12:25:11;101752.03;;;29.80;100.00
38620;BME280;24376;51.986;4.662;2022-07-24T12:27:41;101763.59;;;29.84;100.00
38620;BME280;24376;51.986;4.662;2022-07-24T12:30:20;101749.25;;;29.60;100.00
38620;BME280;24376;51.986;4.662;2022-07-24T12:32:55;101753.81;;;29.81;100.00
38620;BME280;24376;51.986;4.662;2022-07-24T12:35:21;101752.53;;;30.13;100.00
38620;BME280;24376;51.986;4.662;2022-07-24T12:37:46;101729.31;;;29.40;100.00
38620;BME280;24376;51.986;4.662;2022-07-24T12:42:59;101731.78;;;29.70;100.00
38620;BME280;24376;51.986;4.662;2022-07-24T12:45:25;101728.00;;;29.96;100.00
38620;BME280;24376;51.986;4.662;2022-07-24T12:50:30;101736.91;;;30.64;100.00
38620;BME280;24376;51.986;4.662;2022-07-24T12:53:02;101731.47;;;30.86;100.00
38620;BME280;24376;51.986;4.662;2022-07-24T12:55:27;101719.56;;;30.47;100.00
38620;BME280;24376;51.986;4.662;2022-07-24T12:57:56;101717.28;;;30.59;100.00
38620;BME280;24376;51.986;4.662;2022-07-24T13:00:22;101735.81;;;31.29;100.00
38620;BME280;24376;51.986;4.662;2022-07-24T13:02:47;101734.31;;;31.22;100.00
38620;BME280;24376;51.986;4.662;2022-07-24T13:05:12;101709.47;;;30.73;100.00
38620;BME280;24376;51.986;4.662;2022-07-24T13:07:37;101699.84;;;30.45;100.00
38620;BME280;24376;51.986;4.662;2022-07-24T13:10:03;101713.47;;;30.85;100.00
38620;BME280;24376;51.986;4.662;2022-07-24T13:12:28;101706.75;;;31.14;100.00
38620;BME280;24376;51.986;4.662;2022-07-24T13:14:53;101711.03;;;31.18;100.00
38620;BME280;24376;51.986;4.662;2022-07-24T13:17:18;101716.28;;;31.41;100.00
38620;BME280;24376;51.986;4.662;2022-07-24T13:19:45;101694.50;;;31.44;100.00
38620;BME280;24376;51.986;4.662;2022-07-24T13:22:11;101699.38;;;31.74;100.00